createdAt,value
2019-02-09T00:00:17.593Z,59.93
2019-02-09T00:00:50.835Z,59.25
2019-02-09T00:01:22.117Z,58.28
2019-02-09T00:01:53.350Z,57.31
2019-02-09T00:02:25.553Z,56.54
2019-02-09T00:02:56.803Z,55.73
2019-02-09T00:03:28.015Z,55.05
2019-02-09T00:03:59.265Z,54.47
2019-02-09T00:04:30.464Z,53.59
2019-02-09T00:05:01.711Z,52.82
2019-02-09T00:05:32.891Z,52.50
2019-02-09T00:06:04.144Z,52.44
2019-02-09T00:06:35.322Z,52.59
2019-02-09T00:07:06.601Z,52.88
2019-02-09T00:07:37.863Z,53.30
2019-02-09T00:08:09.486Z,53.90
2019-02-09T00:08:41.018Z,54.36
2019-02-09T00:09:12.235Z,55.03
2019-02-09T00:09:43.435Z,55.60
2019-02-09T00:10:14.660Z,56.19
2019-02-09T00:10:45.868Z,56.87
2019-02-09T00:11:17.124Z,57.43
2019-02-09T00:11:48.327Z,57.98
2019-02-09T00:12:19.601Z,58.51
2019-02-09T00:12:50.813Z,59.04
2019-02-09T00:13:22.056Z,59.52
2019-02-09T00:13:53.270Z,60.28
2019-02-09T00:14:24.491Z,61.32
2019-02-09T00:14:55.728Z,61.84
2019-02-09T00:15:26.973Z,61.82
2019-02-09T00:15:58.196Z,61.42
2019-02-09T00:16:29.414Z,60.79
2019-02-09T00:17:00.635Z,60.05
2019-02-09T00:17:31.875Z,59.33
2019-02-09T00:18:04.552Z,58.51
2019-02-09T00:18:35.804Z,57.84
2019-02-09T00:19:07.009Z,56.95
2019-02-09T00:19:38.595Z,56.30
2019-02-09T00:20:15.168Z,55.63
2019-02-09T00:20:46.351Z,55.09
2019-02-09T00:21:17.591Z,54.37
2019-02-09T00:21:48.765Z,53.40
2019-02-09T00:22:20.034Z,52.65
2019-02-09T00:22:51.287Z,52.34
2019-02-09T00:23:22.572Z,52.33
2019-02-09T00:23:53.863Z,52.55
2019-02-09T00:24:25.131Z,52.92
2019-02-09T00:24:56.445Z,53.39
2019-02-09T00:25:27.753Z,53.86
2019-02-09T00:25:59.093Z,54.40
2019-02-09T00:26:30.374Z,55.03
2019-02-09T00:27:01.664Z,55.61
2019-02-09T00:27:33.004Z,56.27
2019-02-09T00:28:04.242Z,57.04
2019-02-09T00:28:35.452Z,57.52
2019-02-09T00:29:07.850Z,58.09
2019-02-09T00:29:46.084Z,58.68
2019-02-09T00:30:15.298Z,59.21
2019-02-09T00:30:46.496Z,59.98
2019-02-09T00:31:17.762Z,61.11
2019-02-09T00:31:48.970Z,61.72
2019-02-09T00:32:20.196Z,61.91
2019-02-09T00:32:51.430Z,61.56
2019-02-09T00:33:22.715Z,60.98
2019-02-09T00:33:54.005Z,60.19
2019-02-09T00:34:25.359Z,59.41
2019-02-09T00:34:56.643Z,58.70
2019-02-09T00:35:27.935Z,57.98
2019-02-09T00:35:59.209Z,57.33
2019-02-09T00:36:30.491Z,56.60
2019-02-09T00:37:01.775Z,55.90
2019-02-09T00:37:33.073Z,55.28
2019-02-09T00:38:04.330Z,54.72
2019-02-09T00:38:36.495Z,53.98
2019-02-09T00:39:08.526Z,53.18
2019-02-09T00:39:39.747Z,52.75
2019-02-09T00:40:17.875Z,52.72
2019-02-09T00:40:49.070Z,52.89
2019-02-09T00:41:20.309Z,53.42
2019-02-09T00:41:51.520Z,53.87
2019-02-09T00:42:22.761Z,54.44
2019-02-09T00:42:53.968Z,55.14
2019-02-09T00:43:25.233Z,55.67
2019-02-09T00:43:56.384Z,56.33
2019-02-09T00:44:27.642Z,57.06
2019-02-09T00:44:58.864Z,57.78
2019-02-09T00:45:30.088Z,58.30
2019-02-09T00:46:01.294Z,59.00
2019-02-09T00:46:32.617Z,59.53
2019-02-09T00:47:03.828Z,60.40
2019-02-09T00:47:35.074Z,61.44
2019-02-09T00:48:06.302Z,62.02
2019-02-09T00:48:37.852Z,62.06
2019-02-09T00:49:09.144Z,61.67
2019-02-09T00:49:40.472Z,61.14
2019-02-09T00:50:13.884Z,60.34
2019-02-09T00:50:45.128Z,59.60
2019-02-09T00:51:16.363Z,58.83
2019-02-09T00:51:47.552Z,58.17
2019-02-09T00:52:18.807Z,57.33
2019-02-09T00:52:50.029Z,56.73
2019-02-09T00:53:21.273Z,56.08
2019-02-09T00:53:52.441Z,55.46
2019-02-09T00:54:23.690Z,54.91
2019-02-09T00:54:54.872Z,54.38
2019-02-09T00:55:27.212Z,53.50
2019-02-09T00:55:58.432Z,52.82
2019-02-09T00:56:29.667Z,52.53
2019-02-09T00:57:00.831Z,52.53
2019-02-09T00:57:32.145Z,52.80
2019-02-09T00:58:03.359Z,53.20
2019-02-09T00:58:34.596Z,53.70
2019-02-09T00:59:05.785Z,54.21
2019-02-09T00:59:37.041Z,54.81
2019-02-09T01:00:23.537Z,55.48
2019-02-09T01:00:54.799Z,55.93
2019-02-09T01:01:26.000Z,57.01
2019-02-09T01:01:57.350Z,57.73
2019-02-09T01:02:28.518Z,58.36
2019-02-09T01:02:59.785Z,58.91
2019-02-09T01:03:31.107Z,59.46
2019-02-09T01:04:02.338Z,60.22
2019-02-09T01:04:33.544Z,61.32
2019-02-09T01:05:05.768Z,61.89
2019-02-09T01:05:41.911Z,62.01
2019-02-09T01:06:13.283Z,61.80
2019-02-09T01:06:44.586Z,61.03
2019-02-09T01:07:15.881Z,60.30
2019-02-09T01:07:47.178Z,59.48
2019-02-09T01:08:18.419Z,58.72
2019-02-09T01:08:49.638Z,57.98
2019-02-09T01:09:21.005Z,57.34
2019-02-09T01:09:52.180Z,56.60
2019-02-09T01:10:23.652Z,55.98
2019-02-09T01:10:54.881Z,55.43
2019-02-09T01:11:26.190Z,54.82
2019-02-09T01:11:57.390Z,54.11
2019-02-09T01:12:28.651Z,53.42
2019-02-09T01:12:59.837Z,53.00
2019-02-09T01:13:31.056Z,52.97
2019-02-09T01:14:02.246Z,53.13
2019-02-09T01:14:33.477Z,53.47
2019-02-09T01:15:09.853Z,53.97
2019-02-09T01:15:41.535Z,54.50
2019-02-09T01:16:12.709Z,55.20
2019-02-09T01:16:43.973Z,55.86
2019-02-09T01:17:15.175Z,56.44
2019-02-09T01:17:46.399Z,57.18
2019-02-09T01:18:17.661Z,57.80
2019-02-09T01:18:48.945Z,58.36
2019-02-09T01:19:20.226Z,59.01
2019-02-09T01:19:51.538Z,59.44
2019-02-09T01:20:25.227Z,60.15
2019-02-09T01:20:56.426Z,61.24
2019-02-09T01:21:27.663Z,61.87
2019-02-09T01:21:58.837Z,61.95
2019-02-09T01:22:31.082Z,61.64
2019-02-09T01:23:02.705Z,61.07
2019-02-09T01:23:33.938Z,60.36
2019-02-09T01:24:05.126Z,59.56
2019-02-09T01:24:36.402Z,58.74
2019-02-09T01:25:09.232Z,57.93
2019-02-09T01:25:40.502Z,57.13
2019-02-09T01:26:11.685Z,56.42
2019-02-09T01:26:42.883Z,55.70
2019-02-09T01:27:14.051Z,55.07
2019-02-09T01:27:45.417Z,54.44
2019-02-09T01:28:16.598Z,53.53
2019-02-09T01:28:47.853Z,52.81
2019-02-09T01:29:19.056Z,52.43
2019-02-09T01:29:50.293Z,52.41
2019-02-09T01:30:28.296Z,52.65
2019-02-09T01:30:59.545Z,52.92
2019-02-09T01:31:30.763Z,53.51
2019-02-09T01:32:01.979Z,54.08
2019-02-09T01:32:33.195Z,54.66
2019-02-09T01:33:04.435Z,55.22
2019-02-09T01:33:35.657Z,55.77
2019-02-09T01:34:06.901Z,56.47
2019-02-09T01:34:38.432Z,57.04
2019-02-09T01:35:12.562Z,57.69
2019-02-09T01:35:43.808Z,58.16
2019-02-09T01:36:15.051Z,58.79
2019-02-09T01:36:46.267Z,59.36
2019-02-09T01:37:17.484Z,60.12
2019-02-09T01:37:49.603Z,61.04
2019-02-09T01:38:20.874Z,61.60
2019-02-09T01:38:52.097Z,61.69
2019-02-09T01:39:23.297Z,61.34
2019-02-09T01:39:54.570Z,60.69
2019-02-09T01:40:27.604Z,59.98
2019-02-09T01:40:59.534Z,59.16
2019-02-09T01:41:30.893Z,58.24
2019-02-09T01:42:02.100Z,57.39
2019-02-09T01:42:33.326Z,56.68
2019-02-09T01:43:04.552Z,55.94
2019-02-09T01:43:35.783Z,55.18
2019-02-09T01:44:08.002Z,54.62
2019-02-09T01:44:39.242Z,53.72
2019-02-09T01:45:20.670Z,52.76
2019-02-09T01:45:51.925Z,52.34
2019-02-09T01:46:23.164Z,52.36
2019-02-09T01:46:54.376Z,52.65
2019-02-09T01:47:25.585Z,53.05
2019-02-09T01:47:56.802Z,53.57
2019-02-09T01:48:28.037Z,54.11
2019-02-09T01:48:59.357Z,54.75
2019-02-09T01:49:30.655Z,55.32
2019-02-09T01:50:04.100Z,55.92
2019-02-09T01:50:35.387Z,56.46
2019-02-09T01:51:06.572Z,57.15
2019-02-09T01:51:37.999Z,57.83
2019-02-09T01:52:09.167Z,58.31
2019-02-09T01:52:40.401Z,58.93
2019-02-09T01:53:12.569Z,59.41
2019-02-09T01:53:43.835Z,60.19
2019-02-09T01:54:15.052Z,61.26
2019-02-09T01:54:46.284Z,61.77
2019-02-09T01:55:17.491Z,61.85
2019-02-09T01:55:48.713Z,61.58
2019-02-09T01:56:19.933Z,60.90
2019-02-09T01:56:51.160Z,60.13
2019-02-09T01:57:22.368Z,59.26
2019-02-09T01:57:53.600Z,58.46
2019-02-09T01:58:24.842Z,57.66
2019-02-09T01:58:56.111Z,56.83
2019-02-09T01:59:27.297Z,56.12
2019-02-09T01:59:58.572Z,55.34
2019-02-09T02:00:34.491Z,54.76
2019-02-09T02:01:05.835Z,53.88
2019-02-09T02:01:37.006Z,53.01
2019-02-09T02:02:08.599Z,52.67
2019-02-09T02:02:39.798Z,52.60
2019-02-09T02:03:11.202Z,52.79
2019-02-09T02:03:42.417Z,53.14
2019-02-09T02:04:13.657Z,53.65
2019-02-09T02:04:44.876Z,54.11
2019-02-09T02:05:21.922Z,54.65
2019-02-09T02:05:53.103Z,55.19
2019-02-09T02:06:24.337Z,56.04
2019-02-09T02:06:55.517Z,56.71
2019-02-09T02:07:26.807Z,57.26
2019-02-09T02:07:57.973Z,57.91
2019-02-09T02:08:29.248Z,58.41
2019-02-09T02:09:00.477Z,58.94
2019-02-09T02:09:31.699Z,59.55
2019-02-09T02:10:08.303Z,60.40
2019-02-09T02:10:39.530Z,61.32
2019-02-09T02:11:10.997Z,61.88
2019-02-09T02:11:42.200Z,61.85
2019-02-09T02:12:13.423Z,61.50
2019-02-09T02:12:44.650Z,60.81
2019-02-09T02:13:15.908Z,60.10
2019-02-09T02:13:47.141Z,59.37
2019-02-09T02:14:18.406Z,58.61
2019-02-09T02:14:49.611Z,57.85
2019-02-09T02:15:20.865Z,57.17
2019-02-09T02:15:52.067Z,56.62
2019-02-09T02:16:23.311Z,55.90
2019-02-09T02:16:54.527Z,55.34
2019-02-09T02:17:25.714Z,54.88
2019-02-09T02:17:56.984Z,54.42
2019-02-09T02:18:28.228Z,53.53
2019-02-09T02:18:59.454Z,52.95
2019-02-09T02:19:30.702Z,52.66
2019-02-09T02:20:06.732Z,52.63
2019-02-09T02:20:37.957Z,52.82
2019-02-09T02:21:09.152Z,53.35
2019-02-09T02:21:40.454Z,53.69
2019-02-09T02:22:11.704Z,54.31
2019-02-09T02:22:43.062Z,54.81
2019-02-09T02:23:14.261Z,55.35
2019-02-09T02:23:45.522Z,55.96
2019-02-09T02:24:16.780Z,56.58
2019-02-09T02:24:48.069Z,57.15
2019-02-09T02:25:19.390Z,57.67
2019-02-09T02:25:50.672Z,58.28
2019-02-09T02:26:21.948Z,58.71
2019-02-09T02:26:53.274Z,59.19
2019-02-09T02:27:24.558Z,59.88
2019-02-09T02:27:55.867Z,60.85
2019-02-09T02:28:27.149Z,61.44
2019-02-09T02:28:58.411Z,61.60
2019-02-09T02:29:29.695Z,61.32
2019-02-09T02:30:00.902Z,60.77
2019-02-09T02:30:38.287Z,60.12
2019-02-09T02:31:09.479Z,59.53
2019-02-09T02:31:40.975Z,58.56
2019-02-09T02:32:12.183Z,57.69
2019-02-09T02:32:43.516Z,56.93
2019-02-09T02:33:14.748Z,56.18
2019-02-09T02:33:46.072Z,55.45
2019-02-09T02:34:17.343Z,54.86
2019-02-09T02:34:48.630Z,54.03
2019-02-09T02:35:19.993Z,53.11
2019-02-09T02:35:51.303Z,52.64
2019-02-09T02:36:22.578Z,52.49
2019-02-09T02:36:54.039Z,52.64
2019-02-09T02:37:25.280Z,52.94
2019-02-09T02:37:56.603Z,53.38
2019-02-09T02:38:27.882Z,53.85
2019-02-09T02:38:59.182Z,54.39
2019-02-09T02:39:30.435Z,54.92
2019-02-09T02:40:02.192Z,55.47
2019-02-09T02:40:33.454Z,56.02
2019-02-09T02:41:05.635Z,56.62
2019-02-09T02:41:36.876Z,57.27
2019-02-09T02:42:08.049Z,57.85
2019-02-09T02:42:39.307Z,58.34
2019-02-09T02:43:10.481Z,58.78
2019-02-09T02:43:41.771Z,59.33
2019-02-09T02:44:12.974Z,59.98
2019-02-09T02:44:44.212Z,61.01
2019-02-09T02:45:20.413Z,61.61
2019-02-09T02:45:51.675Z,61.84
2019-02-09T02:46:22.891Z,61.31
2019-02-09T02:46:54.130Z,60.69
2019-02-09T02:47:25.307Z,59.85
2019-02-09T02:47:56.559Z,59.01
2019-02-09T02:48:27.789Z,58.23
2019-02-09T02:48:59.066Z,57.37
2019-02-09T02:49:30.334Z,56.64
2019-02-09T02:50:01.904Z,55.95
2019-02-09T02:50:33.161Z,55.27
2019-02-09T02:51:04.518Z,54.66
2019-02-09T02:51:35.702Z,53.74
2019-02-09T02:52:06.978Z,52.92
2019-02-09T02:52:38.367Z,52.52
2019-02-09T02:53:09.621Z,52.42
2019-02-09T02:53:40.798Z,52.59
2019-02-09T02:54:12.096Z,53.02
2019-02-09T02:54:43.372Z,53.43
2019-02-09T02:55:28.962Z,53.99
2019-02-09T02:56:01.172Z,54.36
2019-02-09T02:56:32.396Z,55.44
2019-02-09T02:57:03.618Z,56.06
2019-02-09T02:57:34.855Z,56.62
2019-02-09T02:58:06.081Z,57.32
2019-02-09T02:58:37.308Z,57.84
2019-02-09T02:59:08.621Z,58.31
2019-02-09T02:59:39.913Z,58.88
2019-02-09T03:00:20.979Z,59.47
2019-02-09T03:00:52.234Z,60.07
2019-02-09T03:01:24.425Z,61.24
2019-02-09T03:01:55.732Z,61.70
2019-02-09T03:02:27.027Z,61.60
2019-02-09T03:02:58.288Z,61.24
2019-02-09T03:03:29.555Z,60.59
2019-02-09T03:04:00.821Z,59.82
2019-02-09T03:04:32.163Z,59.04
2019-02-09T03:05:09.318Z,58.32
2019-02-09T03:05:40.579Z,57.56
2019-02-09T03:06:11.821Z,56.69
2019-02-09T03:06:43.018Z,56.00
2019-02-09T03:07:14.277Z,55.24
2019-02-09T03:07:45.467Z,54.65
2019-02-09T03:08:16.753Z,53.79
2019-02-09T03:08:47.930Z,52.97
2019-02-09T03:09:20.168Z,52.57
2019-02-09T03:09:51.394Z,52.51
2019-02-09T03:10:22.608Z,52.70
2019-02-09T03:10:53.832Z,53.10
2019-02-09T03:11:25.068Z,53.52
2019-02-09T03:11:56.258Z,54.06
2019-02-09T03:12:27.474Z,54.68
2019-02-09T03:12:58.690Z,55.23
2019-02-09T03:13:29.908Z,55.80
2019-02-09T03:14:01.133Z,56.44
2019-02-09T03:14:32.377Z,57.12
2019-02-09T03:15:13.932Z,57.68
2019-02-09T03:15:45.167Z,58.00
2019-02-09T03:16:16.401Z,58.90
2019-02-09T03:16:47.635Z,59.53
2019-02-09T03:17:18.854Z,60.30
2019-02-09T03:17:50.065Z,61.26
2019-02-09T03:18:21.265Z,61.76
2019-02-09T03:18:52.503Z,61.83
2019-02-09T03:19:24.701Z,61.58
2019-02-09T03:19:56.004Z,60.96
2019-02-09T03:20:27.247Z,60.25
2019-02-09T03:20:58.443Z,59.49
2019-02-09T03:21:29.766Z,58.67
2019-02-09T03:22:01.017Z,57.85
2019-02-09T03:22:32.219Z,57.10
2019-02-09T03:23:03.464Z,56.39
2019-02-09T03:23:34.657Z,55.63
2019-02-09T03:24:05.956Z,55.05
2019-02-09T03:24:37.164Z,54.53
2019-02-09T03:25:18.391Z,53.59
2019-02-09T03:25:49.593Z,52.82
2019-02-09T03:26:20.864Z,52.46
2019-02-09T03:26:52.143Z,52.52
2019-02-09T03:27:23.413Z,52.78
2019-02-09T03:27:54.671Z,53.22
2019-02-09T03:28:25.924Z,53.64
2019-02-09T03:28:57.103Z,54.22
2019-02-09T03:29:28.350Z,54.76
2019-02-09T03:29:59.560Z,55.30
2019-02-09T03:30:30.867Z,55.96
2019-02-09T03:31:02.152Z,56.53
2019-02-09T03:31:33.431Z,57.09
2019-02-09T03:32:05.042Z,57.70
2019-02-09T03:32:36.422Z,58.22
2019-02-09T03:33:08.685Z,58.78
2019-02-09T03:33:39.958Z,59.33
2019-02-09T03:34:11.558Z,60.04
2019-02-09T03:34:42.864Z,61.04
2019-02-09T03:35:15.165Z,61.58
2019-02-09T03:35:46.384Z,61.65
2019-02-09T03:36:17.627Z,61.37
2019-02-09T03:36:48.791Z,60.87
2019-02-09T03:37:20.019Z,60.17
2019-02-09T03:37:51.229Z,59.34
2019-02-09T03:38:22.537Z,58.59
2019-02-09T03:38:53.760Z,57.82
2019-02-09T03:39:24.979Z,56.97
2019-02-09T03:39:56.167Z,56.27
2019-02-09T03:40:27.830Z,55.64
2019-02-09T03:40:59.027Z,55.00
2019-02-09T03:41:30.254Z,54.37
2019-02-09T03:42:01.449Z,53.46
2019-02-09T03:42:32.717Z,52.69
2019-02-09T03:43:03.952Z,52.36
2019-02-09T03:43:35.196Z,52.27
2019-02-09T03:44:06.447Z,52.41
2019-02-09T03:44:37.834Z,52.77
2019-02-09T03:45:18.913Z,53.15
2019-02-09T03:45:50.192Z,53.45
2019-02-09T03:46:21.488Z,54.35
2019-02-09T03:46:52.756Z,55.01
2019-02-09T03:47:24.050Z,55.61
2019-02-09T03:47:55.455Z,56.26
2019-02-09T03:48:27.746Z,56.73
2019-02-09T03:48:59.063Z,57.39
2019-02-09T03:49:30.353Z,57.95
2019-02-09T03:50:04.711Z,58.51
2019-02-09T03:50:35.962Z,58.96
2019-02-09T03:51:07.225Z,59.62
2019-02-09T03:51:38.450Z,60.40
2019-02-09T03:52:09.654Z,61.43
2019-02-09T03:52:41.310Z,61.89
2019-02-09T03:53:12.545Z,61.80
2019-02-09T03:53:43.870Z,61.43
2019-02-09T03:54:15.205Z,60.84
2019-02-09T03:54:46.470Z,60.02
2019-02-09T03:55:17.673Z,59.15
2019-02-09T03:55:49.071Z,58.39
2019-02-09T03:56:20.315Z,57.47
2019-02-09T03:56:51.491Z,56.70
2019-02-09T03:57:22.802Z,55.90
2019-02-09T03:57:54.136Z,55.18
2019-02-09T03:58:25.395Z,54.60
2019-02-09T03:58:56.593Z,53.71
2019-02-09T03:59:27.905Z,52.84
2019-02-09T03:59:59.110Z,52.42
2019-02-09T04:00:31.371Z,52.42
2019-02-09T04:01:02.887Z,52.46
2019-02-09T04:01:34.130Z,52.85
2019-02-09T04:02:05.326Z,53.29
2019-02-09T04:02:36.663Z,53.83
2019-02-09T04:03:07.862Z,54.19
2019-02-09T04:03:39.158Z,54.74
2019-02-09T04:04:10.359Z,55.27
2019-02-09T04:04:41.830Z,55.80
2019-02-09T04:05:13.634Z,56.34
2019-02-09T04:05:44.906Z,56.87
2019-02-09T04:06:16.064Z,57.46
2019-02-09T04:06:47.326Z,57.87
2019-02-09T04:07:18.526Z,58.33
2019-02-09T04:07:49.812Z,58.79
2019-02-09T04:08:21.006Z,59.23
2019-02-09T04:08:52.294Z,59.81
2019-02-09T04:09:23.470Z,60.79
2019-02-09T04:09:54.726Z,61.40
2019-02-09T04:10:26.956Z,61.48
2019-02-09T04:10:58.200Z,61.17
2019-02-09T04:11:29.391Z,60.61
2019-02-09T04:12:00.618Z,59.86
2019-02-09T04:12:31.819Z,59.05
2019-02-09T04:13:03.135Z,58.33
2019-02-09T04:13:34.365Z,57.57
2019-02-09T04:14:05.571Z,56.64
2019-02-09T04:14:36.793Z,55.90
2019-02-09T04:15:12.001Z,55.28
2019-02-09T04:15:43.198Z,54.64
2019-02-09T04:16:14.513Z,53.56
2019-02-09T04:16:45.713Z,52.61
2019-02-09T04:17:16.935Z,52.13
2019-02-09T04:17:48.135Z,52.08
2019-02-09T04:18:19.396Z,52.19
2019-02-09T04:18:50.708Z,52.48
2019-02-09T04:19:21.947Z,52.95
2019-02-09T04:19:53.235Z,53.34
2019-02-09T04:20:24.958Z,53.76
2019-02-09T04:20:56.198Z,54.27
2019-02-09T04:21:27.502Z,54.75
2019-02-09T04:21:58.720Z,55.32
2019-02-09T04:22:29.941Z,55.90
2019-02-09T04:23:01.154Z,56.42
2019-02-09T04:23:32.404Z,56.99
2019-02-09T04:24:03.627Z,57.53
2019-02-09T04:24:34.851Z,58.09
2019-02-09T04:25:13.664Z,58.62
2019-02-09T04:25:44.915Z,58.81
2019-02-09T04:26:16.149Z,59.45
2019-02-09T04:26:47.457Z,60.11
2019-02-09T04:27:18.741Z,60.92
2019-02-09T04:27:49.984Z,61.48
2019-02-09T04:28:21.168Z,61.47
2019-02-09T04:28:52.409Z,61.07
2019-02-09T04:29:23.590Z,60.46
2019-02-09T04:29:54.815Z,59.65
2019-02-09T04:30:30.892Z,58.76
2019-02-09T04:31:05.715Z,58.14
2019-02-09T04:31:36.299Z,57.27
2019-02-09T04:32:07.575Z,56.41
2019-02-09T04:32:39.387Z,55.60
2019-02-09T04:33:10.619Z,54.87
2019-02-09T04:33:41.809Z,54.09
2019-02-09T04:34:13.059Z,53.08
2019-02-09T04:34:44.298Z,52.50
2019-02-09T04:35:15.517Z,52.33
2019-02-09T04:35:46.735Z,52.35
2019-02-09T04:36:18.020Z,52.62
2019-02-09T04:36:49.324Z,52.95
2019-02-09T04:37:20.586Z,53.35
2019-02-09T04:37:51.917Z,53.90
2019-02-09T04:38:23.152Z,54.51
2019-02-09T04:38:54.382Z,54.96
2019-02-09T04:39:25.619Z,55.51
2019-02-09T04:39:56.881Z,56.16
2019-02-09T04:40:31.578Z,56.67
2019-02-09T04:41:02.836Z,56.97
2019-02-09T04:41:34.094Z,57.78
2019-02-09T04:42:05.280Z,58.29
2019-02-09T04:42:36.530Z,58.71
2019-02-09T04:43:07.704Z,59.33
2019-02-09T04:43:39.010Z,59.97
2019-02-09T04:44:10.204Z,60.89
2019-02-09T04:44:41.731Z,61.36
2019-02-09T04:45:16.311Z,61.39
2019-02-09T04:45:47.578Z,61.10
2019-02-09T04:46:18.772Z,60.40
2019-02-09T04:46:50.059Z,59.69
2019-02-09T04:47:21.260Z,58.84
2019-02-09T04:47:52.505Z,58.01
2019-02-09T04:48:23.711Z,57.18
2019-02-09T04:48:54.942Z,56.47
2019-02-09T04:49:26.162Z,55.50
2019-02-09T04:49:57.423Z,54.85
2019-02-09T04:50:28.623Z,53.98
2019-02-09T04:50:59.885Z,52.92
2019-02-09T04:51:31.167Z,52.39
2019-02-09T04:52:02.455Z,52.33
2019-02-09T04:52:33.716Z,52.50
2019-02-09T04:53:04.997Z,52.74
2019-02-09T04:53:36.315Z,53.05
2019-02-09T04:54:07.839Z,53.41
2019-02-09T04:54:39.160Z,53.90
2019-02-09T04:55:19.678Z,54.44
2019-02-09T04:55:50.957Z,54.75
2019-02-09T04:56:22.123Z,55.55
2019-02-09T04:56:53.384Z,56.14
2019-02-09T04:57:24.579Z,56.60
2019-02-09T04:57:55.853Z,57.12
2019-02-09T04:58:27.105Z,57.63
2019-02-09T04:58:58.334Z,58.07
2019-02-09T04:59:29.612Z,58.55
2019-02-09T05:00:00.858Z,58.97
2019-02-09T05:00:32.043Z,59.49
2019-02-09T05:01:03.355Z,60.29
2019-02-09T05:01:34.543Z,61.05
2019-02-09T05:02:05.786Z,61.45
2019-02-09T05:02:36.965Z,61.45
2019-02-09T05:03:08.393Z,61.14
2019-02-09T05:03:39.572Z,60.58
2019-02-09T05:04:10.969Z,59.80
2019-02-09T05:04:42.158Z,59.06
2019-02-09T05:05:13.441Z,58.24
2019-02-09T05:05:44.638Z,57.32
2019-02-09T05:06:15.899Z,56.54
2019-02-09T05:06:47.115Z,55.61
2019-02-09T05:07:18.338Z,54.83
2019-02-09T05:07:49.538Z,53.84
2019-02-09T05:08:20.805Z,52.92
2019-02-09T05:08:52.030Z,52.33
2019-02-09T05:09:23.273Z,52.25
2019-02-09T05:09:54.466Z,52.27
2019-02-09T05:10:25.705Z,52.44
2019-02-09T05:10:56.881Z,52.76
2019-02-09T05:11:28.122Z,53.24
2019-02-09T05:11:59.289Z,53.65
2019-02-09T05:12:30.617Z,54.25
2019-02-09T05:13:01.797Z,54.69
2019-02-09T05:13:33.113Z,55.24
2019-02-09T05:14:04.288Z,55.80
2019-02-09T05:14:35.513Z,56.44
2019-02-09T05:15:10.399Z,56.79
2019-02-09T05:15:41.733Z,57.27
2019-02-09T05:16:12.917Z,57.88
2019-02-09T05:16:44.169Z,58.31
2019-02-09T05:17:15.364Z,58.77
2019-02-09T05:17:46.620Z,59.22
2019-02-09T05:18:17.828Z,59.83
2019-02-09T05:18:49.093Z,60.65
2019-02-09T05:19:20.278Z,61.16
2019-02-09T05:19:51.533Z,61.14
2019-02-09T05:20:24.721Z,60.91
2019-02-09T05:20:56.490Z,60.39
2019-02-09T05:21:27.790Z,59.58
2019-02-09T05:21:58.967Z,58.59
2019-02-09T05:22:30.267Z,57.74
2019-02-09T05:23:01.480Z,56.93
2019-02-09T05:23:32.722Z,56.09
2019-02-09T05:24:03.961Z,55.22
2019-02-09T05:24:35.234Z,54.42
2019-02-09T05:25:09.402Z,53.26
2019-02-09T05:25:41.149Z,52.37
2019-02-09T05:26:12.314Z,51.89
2019-02-09T05:26:43.592Z,51.82
2019-02-09T05:27:14.777Z,51.92
2019-02-09T05:27:46.030Z,52.32
2019-02-09T05:28:17.221Z,52.70
2019-02-09T05:28:48.487Z,53.24
2019-02-09T05:29:19.695Z,53.75
2019-02-09T05:29:51.118Z,54.23
2019-02-09T05:30:28.268Z,54.79
2019-02-09T05:30:59.513Z,55.33
2019-02-09T05:31:30.722Z,55.96
2019-02-09T05:32:01.963Z,56.52
2019-02-09T05:32:33.275Z,57.05
2019-02-09T05:33:04.598Z,57.59
2019-02-09T05:33:35.864Z,58.04
2019-02-09T05:34:07.096Z,58.55
2019-02-09T05:34:38.579Z,58.83
2019-02-09T05:35:09.775Z,59.25
2019-02-09T05:35:41.589Z,59.98
2019-02-09T05:36:12.825Z,61.04
2019-02-09T05:36:44.100Z,61.64
2019-02-09T05:37:16.375Z,61.60
2019-02-09T05:37:47.593Z,61.18
2019-02-09T05:38:18.822Z,60.68
2019-02-09T05:38:50.060Z,59.84
2019-02-09T05:39:21.270Z,59.08
2019-02-09T05:39:56.080Z,58.13
2019-02-09T05:40:29.669Z,57.31
2019-02-09T05:41:00.929Z,56.31
2019-02-09T05:41:32.645Z,55.48
2019-02-09T05:42:03.808Z,54.72
2019-02-09T05:42:35.064Z,53.81
2019-02-09T05:43:06.249Z,52.81
2019-02-09T05:43:37.970Z,52.24
2019-02-09T05:44:09.162Z,52.01
2019-02-09T05:44:40.516Z,52.02
2019-02-09T05:45:16.110Z,52.31
2019-02-09T05:45:47.342Z,52.66
2019-02-09T05:46:18.577Z,53.28
2019-02-09T05:46:49.786Z,53.69
2019-02-09T05:47:20.980Z,54.08
2019-02-09T05:47:52.244Z,54.57
2019-02-09T05:48:23.443Z,55.16
2019-02-09T05:48:54.689Z,55.70
2019-02-09T05:49:25.871Z,56.25
2019-02-09T05:49:57.159Z,56.81
2019-02-09T05:50:28.573Z,57.24
2019-02-09T05:50:59.765Z,57.78
2019-02-09T05:51:31.123Z,58.18
2019-02-09T05:52:02.339Z,58.67
2019-02-09T05:52:33.595Z,59.21
2019-02-09T05:53:04.819Z,59.92
2019-02-09T05:53:36.054Z,60.81
2019-02-09T05:54:07.273Z,61.35
2019-02-09T05:54:38.552Z,61.37
2019-02-09T05:55:09.781Z,60.87
2019-02-09T05:55:41.127Z,60.25
2019-02-09T05:56:12.345Z,59.55
2019-02-09T05:56:43.587Z,58.70
2019-02-09T05:57:14.790Z,57.83
2019-02-09T05:57:46.027Z,56.97
2019-02-09T05:58:17.238Z,56.07
2019-02-09T05:58:48.482Z,55.30
2019-02-09T05:59:19.686Z,54.53
2019-02-09T05:59:50.918Z,53.43
2019-02-09T06:00:34.845Z,52.56
2019-02-09T06:01:06.164Z,52.16
2019-02-09T06:01:37.365Z,52.10
2019-02-09T06:02:09.804Z,52.19
2019-02-09T06:02:41.486Z,52.59
2019-02-09T06:03:12.746Z,52.91
2019-02-09T06:03:43.950Z,53.37
2019-02-09T06:04:15.202Z,53.81
2019-02-09T06:04:46.383Z,54.36
2019-02-09T06:05:17.687Z,54.86
2019-02-09T06:05:49.893Z,55.42
2019-02-09T06:06:21.152Z,55.94
2019-02-09T06:06:52.389Z,56.33
2019-02-09T06:07:23.585Z,56.85
2019-02-09T06:07:54.820Z,57.26
2019-02-09T06:08:26.037Z,57.60
2019-02-09T06:08:57.257Z,58.09
2019-02-09T06:09:28.491Z,58.66
2019-02-09T06:09:59.698Z,59.09
2019-02-09T06:10:30.918Z,59.64
2019-02-09T06:11:02.134Z,60.38
2019-02-09T06:11:33.319Z,61.18
2019-02-09T06:12:04.532Z,61.50
2019-02-09T06:12:35.776Z,61.51
2019-02-09T06:13:07.073Z,60.98
2019-02-09T06:13:38.611Z,60.31
2019-02-09T06:14:09.840Z,59.32
2019-02-09T06:14:41.095Z,58.39
2019-02-09T06:15:16.919Z,57.54
2019-02-09T06:15:49.145Z,56.82
2019-02-09T06:16:20.338Z,55.76
2019-02-09T06:16:51.588Z,54.98
2019-02-09T06:17:22.926Z,54.41
2019-02-09T06:17:54.145Z,53.33
2019-02-09T06:18:25.365Z,52.54
2019-02-09T06:18:56.568Z,52.10
2019-02-09T06:19:27.779Z,51.98
2019-02-09T06:19:59.028Z,52.12
2019-02-09T06:20:30.239Z,52.34
2019-02-09T06:21:01.450Z,52.67
2019-02-09T06:21:32.699Z,53.08
2019-02-09T06:22:03.926Z,53.47
2019-02-09T06:22:35.229Z,53.91
2019-02-09T06:23:06.516Z,54.45
2019-02-09T06:23:38.111Z,54.92
2019-02-09T06:24:09.417Z,55.39
2019-02-09T06:24:40.996Z,56.00
2019-02-09T06:25:12.288Z,56.56
2019-02-09T06:25:43.586Z,57.09
2019-02-09T06:26:14.879Z,57.59
2019-02-09T06:26:46.416Z,58.15
2019-02-09T06:27:17.725Z,58.60
2019-02-09T06:27:48.930Z,59.07
2019-02-09T06:28:20.175Z,59.40
2019-02-09T06:28:51.377Z,60.01
2019-02-09T06:29:22.653Z,60.83
2019-02-09T06:29:53.858Z,61.38
2019-02-09T06:30:31.002Z,61.29
2019-02-09T06:31:02.176Z,61.02
2019-02-09T06:31:40.498Z,60.25
2019-02-09T06:32:06.533Z,59.37
2019-02-09T06:32:39.018Z,58.41
2019-02-09T06:33:10.213Z,57.52
2019-02-09T06:33:42.605Z,56.77
2019-02-09T06:34:13.769Z,55.95
2019-02-09T06:34:45.009Z,55.16
2019-02-09T06:35:16.180Z,54.48
2019-02-09T06:35:47.412Z,53.50
2019-02-09T06:36:18.590Z,52.60
2019-02-09T06:36:49.838Z,52.09
2019-02-09T06:37:21.086Z,51.94
2019-02-09T06:37:52.436Z,51.96
2019-02-09T06:38:23.723Z,52.14
2019-02-09T06:38:54.987Z,52.49
2019-02-09T06:39:26.290Z,52.87
2019-02-09T06:39:57.562Z,53.34
2019-02-09T06:40:29.566Z,53.79
2019-02-09T06:41:00.869Z,54.31
2019-02-09T06:41:32.175Z,54.87
2019-02-09T06:42:03.482Z,55.33
2019-02-09T06:42:34.742Z,55.74
2019-02-09T06:43:05.927Z,56.19
2019-02-09T06:43:37.172Z,56.76
2019-02-09T06:44:08.374Z,57.19
2019-02-09T06:44:39.629Z,57.67
2019-02-09T06:45:15.349Z,58.18
2019-02-09T06:45:46.571Z,58.47
2019-02-09T06:46:17.723Z,59.13
2019-02-09T06:46:49.004Z,59.55
2019-02-09T06:47:20.219Z,60.05